KMWT

Mount Ida Airport

Mount Ida, Arkansas, USA
METAR KMWT 240153Z AUTO 00000KT 10SM CLR 22/21 A3007 RMK AO2 SLP175 T02170206
Observed Flight Rules
May-24 @ 01:53 UTC (16 minutes ago) Visual Flight Rules
Visibility Clouds
10 miles
  • Clear skies
Temperatures Readings
Current 22°C / 72°F
Dewpoint 21°C / 70°F
Humidity 94%
Altimeter 30.07" Hg
Pressure 1017.5 hPa
Elevation 214
METAR KMWT 240153Z AUTO 00000KT 10SM CLR 22/21 A3007 RMK AO2 SLP175 T02170206
Observed Flight Rules
May-24 @ 01:53 UTC
(16 minutes ago)
VFR
Clouds
  • Clear skies
Temperature Dewpoint
22°C / 72°F 21°C / 70°F
Humidity Altimeter Pressure
94% 30.07" Hg 1017.5 hPa